Aérodrome :







RETROUVEZ-NOUS SUR...

 
LOGIN :

S'inscrire | Disclaimer

   EN    FR    IT 

 









Légende :    VFR   VFR Marginal   IFR   IFR Intensif   IFR Très Intensif
Visi : 
Plafond : 
>= 8 km
>= 3000ft
5 à 8 km
1000 à 3000 ft
1500m à 5 km
500 à 1000 ft
800 à 1500m
200 à 500 ft
< 800m
< 200 ft
Symboles :   Orages  Brouillard  Fortes neiges  Fortes précipitations  Vent > 20 kt






- Altitude de l'aérodrome : 76 ft
- Code IATA : PWM


KPWM - Portland International Jetport

DERNIER METAR :
  • 290951Z 11004KT 10SM OVC070 06/03 A3020 RMK AO2 SLP228 T00610033

METARs EXPIRÉS :
  • 290851Z 08004KT 10SM SCT080 OVC100 06/03 A3020 RMK AO2 SLP228 T00610033 50005
  • 290751Z AUTO 08004KT 10SM OVC110 06/03 A3021 RMK AO2 SLP229 T00560033
  • 290651Z AUTO 10004KT 10SM BKN120 06/03 A3019 RMK AO2 SLP224 T00610028

TAF KPWM
Valide du 29 à 09h jusqu'au 30 à 06h UTC


290902Z 2909/3006 VRB04KT P6SM OVC050
FM291500 07005KT 4SM -RA OVC025
FM291800 09008KT 1SM -RA BKN003 OVC015



MET'MAP, la Météo Aéronautique d'un coup d'oeil ! - Copyright ORBIFLY Décembre 2007 - Disclaimer

ORBIFLY MET'MAP TEAM :

Programmation & Développement : Alexandra Zaïnal
Sur une idée originale de : Baudouin d'Aumeries
Assistance à la programmation : Marc-Olivier Méhu
Soutien technique & logistique : Manuel Goepfert

Contact : metmap@orbifly.com




SOURCES & CREDITS :

   NOAA